Meteo Giornale » Osservazioni meteo Stati Uniti (USA) » Clines Corners
ore: 22:53 - Osservazioni Meteo Clines Corners
Lat. 35° 0' N Lon. 105° 40' W Alt. 2160 metri s.l.m.
16 °C
Poco Nuvoloso
Temp. 24 Ore
16 °C
30 °C
Nord-Est
13 Km/h
Dew point 12 °C
Umidità 77 %
Visibilità 10 Km
Il sole sorge alle ore 06:34
Il sole tramonta alle ore 19:30
| Data e Ora | Cielo e Fenomeni | T °C | DP °C | Um. % | Pres. hPa | Vis. km | Vento km/h | |
|---|---|---|---|---|---|---|---|---|
| Oggi h: 22:53 | Poco Nuvoloso | 16 | 12 | 77 | 1027 | 10 | NE 13 | |
| Oggi h: 21:53 | Nuvoloso | 17 | 13 | 77 | 1027 | 10 | NO 13 | |
| Oggi h: 20:53 | Nuvoloso | 16 | 13 | 82 | 1026 | 10 | O/NO 22.2 | |
| Oggi h: 19:53 | Pioggia | 16 | 13 | 82 | 1025 | 14 | NO 25.9 | |
| Oggi h: 18:53 | Coperto | 19 | 11 | 59 | 1025 | 10 | O 22.2 | |
| Oggi h: 17:53 | Coperto | 21 | 10 | 49 | 1024 | 10 | O/NO 9.3 | |
| Oggi h: 16:53 | Pioggia | 20 | 9 | 49 | 1024 | 14 | N 5.5 | |
| Oggi h: 15:53 | Molto Nuvoloso | 24 | 9 | 38 | 1024 | 10 | O/NO 13 | |
| Oggi h: 14:53 | Coperto | 23 | 10 | 43 | 1025 | 10 | O/NO 20.3 | |
| Oggi h: 14:51 | Coperto | 23 | 9 | 40 | 1025 | 10 | O/NO 18.5 | |
| Oggi h: 14:42 | Pioggia | 23 | 11 | 46 | 1025 | 10 | NO 20.3 | |
| Oggi h: 13:53 | Sereno | 30 | 6 | 22 | 1025 | 10 | S 18.5 | |
| Oggi h: 12:53 | Poco Nuvoloso | 28 | 7 | 26 | 1026 | 10 | N 11.1 | |
| Oggi h: 11:53 | Sereno | 28 | 8 | 28 | 1027 | 10 | E/SE 18.5 | |
| Oggi h: 10:53 | Sereno | 26 | 8 | 31 | 1027 | 10 | E 14.8 | |
| Oggi h: 09:53 | Sereno | 24 | 8 | 35 | 1027 | 10 | E/NE 22.2 | |
| Oggi h: 08:53 | Sereno | 22 | 8 | 40 | 1027 | 10 | NE 20.3 | |
| Oggi h: 07:53 | Poco Nuvoloso | 19 | 8 | 48 | 1027 | 10 | N 14.8 | |
| Oggi h: 06:53 | Sereno | 16 | 7 | 55 | 1026 | 10 | N/NO 18.5 | |
| Oggi h: 05:53 | Sereno | 17 | 7 | 51 | 1026 | 10 | N/NE 7.4 | |
| Oggi h: 04:53 | Poco Nuvoloso | 17 | 6 | 48 | 1026 | 10 | O/NO 11.1 | |
| Oggi h: 03:53 | Molto Nuvoloso | 19 | 6 | 42 | 1025 | 10 | O/NO 7.4 | |
| Oggi h: 02:53 | Molto Nuvoloso | 19 | 6 | 42 | 1025 | 10 | O/NO 14.8 | |
| Oggi h: 01:53 | Coperto | 20 | 6 | 39 | 1025 | 10 | O/NO 14.8 | |
| Oggi h: 00:53 | Coperto | 21 | 6 | 37 | 1025 | 10 | O 7.4 | |
| Ieri h: 23:53 | Coperto | 22 | 6 | 35 | 1026 | 10 | N 0 | |



